Overview Statistics Trail Chart Weather Telemetry Raw packets
 

This is the latest recevied weather packets stored in our database for station/object OK2VOP-6. If no packets are shown the sender has not sent any weather packets the latest 10 day(s).

<< 8 9 10 11 12 13 14 >>
Time Temp. Humidity Pressure Rain* Wind** Luminosity Snow
1788421643 18.89° C 52% - 0 mm - - -
1788420438 18.33° C 52% - 0 mm - - -
1788419233 17.78° C 52% - 0 mm - - -
1788418028 17.22° C 54% - 0 mm - - -
1788416824 16.67° C 59% - 0 mm - - -
1788415619 16.67° C 59% - 0 mm - - -
1788414414 16.67° C 58% - 0 mm - - -
1788413209 16.67° C 57% - 0 mm - - -
1788412004 16.11° C 56% - 0 mm - - -
1788410801 15.56° C 58% - 0 mm - - -
1788409594 15° C 59% - 0 mm - - -
1788408390 15° C 58% - 0 mm - - -
1788407184 15° C 57% - 0 mm - - -
1788405980 15° C 58% - 0 mm - - -
1788404775 15° C 59% - 0 mm - - -
1788403570 14.44° C 59% - 0 mm - - -
1788402365 15° C 57% - 0 mm - - -
1788401160 15.56° C 56% - 0 mm - - -
1788399956 16.11° C 55% - 0 mm - - -
1788398750 15.56° C 56% - 0 mm - - -
1788397545 15.56° C 55% - 0 mm - - -
1788396340 16.11° C 54% - 0 mm - - -
1788395136 17.22° C 49% - 0 mm - - -
1788393932 17.22° C 48% - 0 mm - - -
1788392726 16.67° C 52% - 0 mm - - -

* Rain latest hour (hover to see other rain measurements)
** Current wind speed in m/s (hover to see current wind gust speed)